createdAt,value
2017-07-31T00:00:45.069Z,79.10
2017-07-31T00:03:13.960Z,79.40
2017-07-31T00:05:42.244Z,79.70
2017-07-31T00:08:10.815Z,80.20
2017-07-31T00:10:39.235Z,80.50
2017-07-31T00:13:08.276Z,80.90
2017-07-31T00:15:36.576Z,80.50
2017-07-31T00:18:04.877Z,81.60
2017-07-31T00:20:34.416Z,81.90
2017-07-31T00:23:03.496Z,82.70
2017-07-31T00:25:34.452Z,82.40
2017-07-31T00:28:02.726Z,82.70
2017-07-31T00:30:32.214Z,83.60
2017-07-31T00:33:01.303Z,83.60
2017-07-31T00:35:29.675Z,83.10
2017-07-31T00:37:58.339Z,83.90
2017-07-31T00:40:26.980Z,84.00
2017-07-31T00:42:56.099Z,84.40
2017-07-31T00:45:25.431Z,85.20
2017-07-31T00:47:54.216Z,85.00
2017-07-31T00:50:23.037Z,85.80
2017-07-31T00:52:51.558Z,86.10
2017-07-31T00:55:22.257Z,86.90
2017-07-31T00:57:50.892Z,87.40
2017-07-31T01:00:20.021Z,87.70
2017-07-31T01:02:49.093Z,88.70
2017-07-31T01:05:18.945Z,88.70
2017-07-31T01:07:47.289Z,88.70
2017-07-31T01:10:17.013Z,88.40
2017-07-31T01:12:46.752Z,88.70
2017-07-31T01:15:15.077Z,88.60
2017-07-31T01:17:43.355Z,89.10
2017-07-31T01:20:11.952Z,88.70
2017-07-31T01:22:41.274Z,88.90
2017-07-31T01:25:10.164Z,89.00
2017-07-31T01:27:38.453Z,89.40
2017-07-31T01:30:06.758Z,89.10
2017-07-31T01:32:35.838Z,89.00
2017-07-31T01:35:04.519Z,88.80
2017-07-31T01:37:33.425Z,89.00
2017-07-31T01:40:03.337Z,90.00
2017-07-31T01:42:31.623Z,89.40
2017-07-31T01:44:59.899Z,89.60
2017-07-31T01:47:28.468Z,90.00
2017-07-31T01:49:57.240Z,90.00
2017-07-31T01:52:25.605Z,90.10
2017-07-31T01:54:54.636Z,90.10
2017-07-31T01:57:23.038Z,90.20
2017-07-31T01:59:52.338Z,90.30
2017-07-31T02:02:21.470Z,90.40
2017-07-31T02:04:50.506Z,90.70
2017-07-31T02:07:18.917Z,90.70
2017-07-31T02:09:48.054Z,90.90
2017-07-31T02:12:17.429Z,91.10
2017-07-31T02:14:46.794Z,91.10
2017-07-31T02:17:15.834Z,91.20
2017-07-31T02:19:44.230Z,91.20
2017-07-31T02:22:12.587Z,91.30
2017-07-31T02:24:41.942Z,91.60
2017-07-31T02:27:10.993Z,92.30
2017-07-31T02:29:40.084Z,92.00
2017-07-31T02:32:08.510Z,92.00
2017-07-31T02:34:36.795Z,92.10
2017-07-31T02:37:06.563Z,91.80
2017-07-31T02:39:35.664Z,91.80
2017-07-31T02:42:04.169Z,91.90
2017-07-31T02:44:33.471Z,91.90
2017-07-31T02:47:01.774Z,92.00
2017-07-31T02:49:30.469Z,92.30
2017-07-31T02:51:58.925Z,92.60
2017-07-31T02:54:27.220Z,92.80
2017-07-31T02:56:55.514Z,92.70
2017-07-31T02:59:24.601Z,92.80
2017-07-31T03:01:53.335Z,92.70
2017-07-31T03:04:22.604Z,92.90
2017-07-31T03:06:50.915Z,92.90
2017-07-31T03:09:20.090Z,93.00
2017-07-31T03:11:49.141Z,93.00
2017-07-31T03:14:17.756Z,92.80
2017-07-31T03:16:46.045Z,92.90
2017-07-31T03:19:14.872Z,92.80
2017-07-31T03:21:43.262Z,92.90
2017-07-31T03:24:12.401Z,92.90
2017-07-31T03:26:41.014Z,92.90
2017-07-31T03:29:09.350Z,92.70
2017-07-31T03:31:37.696Z,92.70
2017-07-31T03:34:06.935Z,92.60
2017-07-31T03:36:35.342Z,92.50
2017-07-31T03:39:03.950Z,93.10
2017-07-31T03:41:33.047Z,92.70
2017-07-31T03:44:02.435Z,92.30
2017-07-31T03:46:30.756Z,92.20
2017-07-31T03:48:59.641Z,91.60
2017-07-31T03:51:29.358Z,92.80
2017-07-31T03:53:58.164Z,92.40
2017-07-31T03:56:27.279Z,92.90
2017-07-31T03:58:56.368Z,93.40
2017-07-31T04:01:24.679Z,93.40
2017-07-31T04:03:53.300Z,93.00
2017-07-31T04:06:21.630Z,92.50
2017-07-31T04:08:51.518Z,93.20
2017-07-31T04:11:19.921Z,93.20
2017-07-31T04:13:48.532Z,93.60
2017-07-31T04:16:17.898Z,94.00
2017-07-31T04:18:46.213Z,94.00
2017-07-31T04:21:15.278Z,94.00
2017-07-31T04:23:44.255Z,94.00
2017-07-31T04:26:12.666Z,93.80
2017-07-31T04:28:40.998Z,94.70
2017-07-31T04:31:09.332Z,93.60
2017-07-31T04:33:37.714Z,93.60
2017-07-31T04:36:06.273Z,93.90
2017-07-31T04:38:34.701Z,93.40
2017-07-31T04:41:03.693Z,93.00
2017-07-31T04:43:32.067Z,92.90
2017-07-31T04:46:01.367Z,92.40
2017-07-31T04:48:29.969Z,92.60
2017-07-31T04:50:58.273Z,92.30
2017-07-31T04:53:27.328Z,92.50
2017-07-31T04:55:56.142Z,92.40
2017-07-31T04:58:24.500Z,91.70
2017-07-31T05:00:53.117Z,91.50
2017-07-31T05:03:22.690Z,91.00
2017-07-31T05:05:50.987Z,91.10
2017-07-31T05:08:20.891Z,90.80
2017-07-31T05:10:49.224Z,91.10
2017-07-31T05:13:17.768Z,91.00
2017-07-31T05:15:46.290Z,90.70
2017-07-31T05:18:15.518Z,90.70
2017-07-31T05:20:43.853Z,90.70
2017-07-31T05:23:12.155Z,91.00
2017-07-31T05:25:42.366Z,91.20
2017-07-31T05:28:10.669Z,90.90
2017-07-31T05:30:39.765Z,91.00
2017-07-31T05:33:09.932Z,90.90
2017-07-31T05:35:38.671Z,91.10
2017-07-31T05:38:07.587Z,91.20
2017-07-31T05:40:36.648Z,91.50
2017-07-31T05:43:04.988Z,91.50
2017-07-31T05:45:34.073Z,91.80
2017-07-31T05:48:03.251Z,91.60
2017-07-31T05:50:31.929Z,91.60
2017-07-31T05:53:00.211Z,91.60
2017-07-31T05:55:29.139Z,91.30
2017-07-31T05:57:58.235Z,91.10
2017-07-31T06:00:27.326Z,90.90
2017-07-31T06:02:55.996Z,90.90
2017-07-31T06:05:24.948Z,90.90
2017-07-31T06:07:53.731Z,90.80
2017-07-31T06:10:22.089Z,90.50
2017-07-31T06:12:54.461Z,90.60
2017-07-31T06:15:24.827Z,90.30
2017-07-31T06:17:54.295Z,90.30
2017-07-31T06:20:23.316Z,90.30
2017-07-31T06:22:52.367Z,90.10
2017-07-31T06:25:20.681Z,90.10
2017-07-31T06:27:49.921Z,90.20
2017-07-31T06:30:18.738Z,90.40
2017-07-31T06:32:47.627Z,90.60
2017-07-31T06:35:16.036Z,90.00
2017-07-31T06:37:45.406Z,89.70
2017-07-31T06:40:14.078Z,89.40
2017-07-31T06:42:42.843Z,88.70
2017-07-31T06:45:12.059Z,88.00
2017-07-31T06:47:41.273Z,87.60
2017-07-31T06:50:10.399Z,87.50
2017-07-31T06:52:39.041Z,87.50
2017-07-31T06:55:07.407Z,87.40
2017-07-31T06:57:36.496Z,87.40
2017-07-31T07:00:04.912Z,85.80
2017-07-31T07:02:33.236Z,86.70
2017-07-31T07:05:02.845Z,87.50
2017-07-31T07:07:31.219Z,87.90
2017-07-31T07:09:59.522Z,87.40
2017-07-31T07:12:27.927Z,86.60
2017-07-31T07:14:56.261Z,85.20
2017-07-31T07:17:25.019Z,83.40
2017-07-31T07:19:54.618Z,84.40
2017-07-31T07:22:23.110Z,82.90
2017-07-31T07:24:51.480Z,81.40
2017-07-31T07:27:20.390Z,82.40
2017-07-31T07:29:50.061Z,82.50
2017-07-31T07:32:19.089Z,82.30
2017-07-31T07:34:47.502Z,82.00
2017-07-31T07:37:16.311Z,81.70
2017-07-31T07:39:46.138Z,79.60
2017-07-31T07:42:14.715Z,79.50
2017-07-31T07:44:44.844Z,79.40
2017-07-31T07:47:13.993Z,78.50
2017-07-31T07:49:42.413Z,78.50
2017-07-31T07:52:10.751Z,78.90
2017-07-31T07:54:39.333Z,78.40
2017-07-31T07:57:07.749Z,77.80
2017-07-31T07:59:36.088Z,78.60
2017-07-31T08:02:04.410Z,78.40
2017-07-31T08:04:33.624Z,77.40
2017-07-31T08:07:02.298Z,74.80
2017-07-31T08:09:31.890Z,75.00
2017-07-31T08:12:00.347Z,75.00
2017-07-31T08:14:28.774Z,74.90
2017-07-31T08:16:57.053Z,74.70
2017-07-31T08:19:25.591Z,75.00
2017-07-31T08:21:53.891Z,74.70
2017-07-31T08:24:22.186Z,75.50
2017-07-31T08:26:50.479Z,75.10
2017-07-31T08:29:18.764Z,75.40
2017-07-31T08:31:47.316Z,75.60
2017-07-31T08:34:15.646Z,75.20
2017-07-31T08:36:44.278Z,74.70
2017-07-31T08:39:12.565Z,74.40
2017-07-31T08:41:40.868Z,74.20
2017-07-31T08:44:09.803Z,73.00
2017-07-31T08:46:38.197Z,72.90
2017-07-31T08:49:06.701Z,72.40
2017-07-31T08:51:36.615Z,72.50
2017-07-31T08:54:05.627Z,71.60
2017-07-31T08:56:34.355Z,72.00
2017-07-31T08:59:02.770Z,72.00
2017-07-31T09:01:32.114Z,71.90
2017-07-31T09:04:01.223Z,71.00
2017-07-31T09:06:29.519Z,72.00
2017-07-31T09:09:01.810Z,72.50
2017-07-31T09:11:30.120Z,71.50
2017-07-31T09:13:58.452Z,70.60
2017-07-31T09:16:26.749Z,70.00
2017-07-31T09:18:55.043Z,67.80
2017-07-31T09:21:24.266Z,68.90
2017-07-31T09:23:52.527Z,67.60
2017-07-31T09:26:20.828Z,69.10
2017-07-31T09:28:50.103Z,68.00
2017-07-31T09:31:19.429Z,68.40
2017-07-31T09:33:48.680Z,67.50
2017-07-31T09:36:16.967Z,66.50
2017-07-31T09:38:45.291Z,66.90
2017-07-31T09:41:13.664Z,65.00
2017-07-31T09:43:41.976Z,64.30
2017-07-31T09:46:11.388Z,59.20
2017-07-31T09:48:41.310Z,59.80
2017-07-31T09:51:10.773Z,59.70
2017-07-31T09:53:39.513Z,58.80
2017-07-31T09:56:08.600Z,59.40
2017-07-31T09:58:38.672Z,58.00
2017-07-31T10:01:07.132Z,58.10
2017-07-31T10:03:36.460Z,57.60
2017-07-31T10:06:05.414Z,57.40
2017-07-31T10:08:33.781Z,56.50
2017-07-31T10:11:03.252Z,54.70
2017-07-31T10:13:32.076Z,55.20
2017-07-31T10:16:00.629Z,54.80
2017-07-31T10:21:00.209Z,90.60
2017-07-31T10:23:29.650Z,85.20
2017-07-31T10:25:57.987Z,77.40
2017-07-31T10:28:26.554Z,54.60
2017-07-31T10:30:56.491Z,53.20
2017-07-31T10:33:24.868Z,53.30
2017-07-31T10:35:53.658Z,51.90
2017-07-31T10:38:22.056Z,49.50
2017-07-31T10:40:50.742Z,50.30
2017-07-31T10:43:19.853Z,51.30
2017-07-31T10:45:49.306Z,68.30
2017-07-31T10:48:17.645Z,59.00
2017-07-31T10:58:15.674Z,48.00
2017-07-31T11:00:44.770Z,46.40
2017-07-31T11:03:13.817Z,46.40
2017-07-31T11:05:42.368Z,44.80
2017-07-31T11:08:11.565Z,43.80
2017-07-31T11:10:40.568Z,43.70
2017-07-31T11:13:08.938Z,41.40
2017-07-31T11:15:38.455Z,40.90
2017-07-31T11:18:07.965Z,41.50
2017-07-31T11:20:38.058Z,42.00
2017-07-31T11:23:06.369Z,41.40
2017-07-31T11:25:36.568Z,39.40
2017-07-31T11:33:05.543Z,59.60
2017-07-31T11:35:34.591Z,67.10
2017-07-31T11:38:04.653Z,34.00
2017-07-31T11:43:03.491Z,34.80
2017-07-31T11:45:32.221Z,34.80
2017-07-31T11:52:59.578Z,29.20
2017-07-31T11:55:28.142Z,29.50
2017-07-31T11:57:56.577Z,29.70
2017-07-31T12:00:28.283Z,28.50
2017-07-31T12:02:56.840Z,27.70
2017-07-31T12:05:28.134Z,48.20
2017-07-31T12:07:57.920Z,47.40
2017-07-31T12:10:26.915Z,29.50
2017-07-31T12:12:56.666Z,27.90
2017-07-31T12:15:25.027Z,28.30
2017-07-31T12:17:53.321Z,28.60
2017-07-31T12:20:22.486Z,28.80
2017-07-31T12:22:50.823Z,28.40
2017-07-31T12:25:20.273Z,30.60
2017-07-31T12:27:49.748Z,53.70
2017-07-31T12:30:18.523Z,30.00
2017-07-31T12:32:47.618Z,26.70
2017-07-31T12:35:17.297Z,26.20
2017-07-31T12:37:45.918Z,25.40
2017-07-31T12:40:16.712Z,23.60
2017-07-31T12:42:46.131Z,23.40
2017-07-31T12:45:15.712Z,23.20
2017-07-31T12:47:44.155Z,23.70
2017-07-31T12:50:12.604Z,23.90
2017-07-31T12:52:40.908Z,23.60
2017-07-31T12:55:09.611Z,24.00
2017-07-31T12:57:38.103Z,23.80
2017-07-31T13:00:06.900Z,24.70
2017-07-31T13:05:05.092Z,55.10
2017-07-31T13:07:33.948Z,30.00
2017-07-31T13:12:31.763Z,63.40
2017-07-31T13:15:00.135Z,27.30
2017-07-31T13:17:28.547Z,26.80
2017-07-31T13:19:58.754Z,25.50
2017-07-31T13:22:27.066Z,25.90
2017-07-31T13:24:55.754Z,26.80
2017-07-31T13:27:24.056Z,25.60
2017-07-31T13:29:53.096Z,24.00
2017-07-31T13:32:22.612Z,24.00
2017-07-31T13:34:52.104Z,22.50
2017-07-31T13:37:20.933Z,22.90
2017-07-31T13:39:50.327Z,22.50
2017-07-31T13:42:18.619Z,22.50
2017-07-31T13:44:48.114Z,20.20
2017-07-31T13:47:16.518Z,20.60
2017-07-31T13:49:45.621Z,20.50
2017-07-31T13:52:15.008Z,20.90
2017-07-31T13:54:43.318Z,20.80
2017-07-31T13:57:12.400Z,20.60
2017-07-31T13:59:41.067Z,20.60
2017-07-31T14:02:09.457Z,20.80
2017-07-31T14:04:38.046Z,21.70
2017-07-31T14:07:07.144Z,23.20
2017-07-31T14:09:35.656Z,23.80
2017-07-31T14:12:04.419Z,24.70
2017-07-31T14:14:32.821Z,25.90
2017-07-31T14:17:02.188Z,24.60
2017-07-31T14:19:30.535Z,23.50
2017-07-31T14:21:59.531Z,22.50
2017-07-31T14:24:28.193Z,21.10
2017-07-31T14:26:58.840Z,20.80
2017-07-31T14:31:57.121Z,55.20
2017-07-31T14:34:26.169Z,22.10
2017-07-31T14:36:54.846Z,21.90
2017-07-31T14:39:23.904Z,21.10
2017-07-31T14:41:52.336Z,21.00
2017-07-31T14:46:51.425Z,27.50
2017-07-31T14:49:20.149Z,29.20
2017-07-31T14:51:49.384Z,20.90
2017-07-31T14:54:17.698Z,21.10
2017-07-31T15:01:45.322Z,49.90
2017-07-31T15:04:15.243Z,31.00
2017-07-31T15:09:13.308Z,56.70
2017-07-31T15:16:40.916Z,41.80
2017-07-31T15:19:09.212Z,25.50
2017-07-31T15:21:37.515Z,24.50
2017-07-31T15:24:05.899Z,24.30
2017-07-31T15:26:36.015Z,26.30
2017-07-31T15:29:04.287Z,25.70
2017-07-31T15:31:32.612Z,24.60
2017-07-31T15:34:01.789Z,24.20
2017-07-31T15:36:30.171Z,24.20
2017-07-31T15:39:00.374Z,24.90
2017-07-31T15:53:56.954Z,65.90
2017-07-31T15:56:25.423Z,29.50
2017-07-31T15:58:54.031Z,31.40
2017-07-31T16:01:23.065Z,33.30
2017-07-31T16:03:51.377Z,33.70
2017-07-31T16:06:20.165Z,34.70
2017-07-31T16:08:48.549Z,34.00
2017-07-31T16:11:17.651Z,34.70
2017-07-31T16:13:46.339Z,35.90
2017-07-31T16:16:15.280Z,37.00
2017-07-31T16:18:44.593Z,36.80
2017-07-31T16:21:13.398Z,36.80
2017-07-31T16:23:41.989Z,36.70
2017-07-31T16:26:10.336Z,37.40
2017-07-31T16:28:40.235Z,37.00
2017-07-31T16:31:08.806Z,37.50
2017-07-31T16:33:37.192Z,36.50
2017-07-31T16:36:05.486Z,36.50
2017-07-31T16:38:37.892Z,37.30
2017-07-31T16:41:06.186Z,37.90
2017-07-31T16:43:47.134Z,38.10
2017-07-31T16:46:23.482Z,38.10
2017-07-31T16:49:03.502Z,38.50
2017-07-31T16:51:31.808Z,38.70
2017-07-31T16:54:00.397Z,40.40
2017-07-31T16:56:28.678Z,40.10
2017-07-31T16:58:57.275Z,39.70
2017-07-31T17:01:25.607Z,40.30
2017-07-31T17:03:53.884Z,40.70
2017-07-31T17:06:22.626Z,40.80
2017-07-31T17:08:50.878Z,40.80
2017-07-31T17:11:19.188Z,41.00
2017-07-31T17:13:47.585Z,41.00
2017-07-31T17:16:16.339Z,41.40
2017-07-31T17:18:44.944Z,42.10
2017-07-31T17:38:41.430Z,88.40
2017-07-31T17:41:09.700Z,64.60
2017-07-31T17:43:39.152Z,62.70
2017-07-31T17:46:07.927Z,61.00
2017-07-31T17:48:36.763Z,59.70
2017-07-31T17:51:05.596Z,60.40
2017-07-31T17:53:34.647Z,60.70
2017-07-31T17:56:04.352Z,61.20
2017-07-31T17:58:34.692Z,62.50
2017-07-31T18:01:03.346Z,60.90
2017-07-31T18:03:31.701Z,62.50
2017-07-31T18:06:00.086Z,63.10
2017-07-31T18:08:28.704Z,62.60
2017-07-31T18:10:57.931Z,63.00
2017-07-31T18:13:26.998Z,62.80
2017-07-31T18:15:55.388Z,62.20
2017-07-31T18:18:23.922Z,62.90
2017-07-31T18:20:52.568Z,63.40
2017-07-31T18:23:21.709Z,64.10
2017-07-31T18:25:50.830Z,64.50
2017-07-31T18:28:19.164Z,65.00
2017-07-31T18:30:47.701Z,65.10
2017-07-31T18:33:16.460Z,64.90
2017-07-31T18:35:45.520Z,66.70
2017-07-31T18:38:13.817Z,65.90
2017-07-31T18:40:42.994Z,67.30
2017-07-31T18:43:11.295Z,66.80
2017-07-31T18:45:39.883Z,67.70
2017-07-31T18:48:09.052Z,68.90
2017-07-31T18:50:37.471Z,70.20
2017-07-31T18:53:05.857Z,69.40
2017-07-31T18:55:34.117Z,71.60
2017-07-31T18:58:03.312Z,72.80
2017-07-31T19:00:31.708Z,66.70
2017-07-31T19:03:00.193Z,67.60
2017-07-31T19:05:28.478Z,72.80
2017-07-31T19:07:56.793Z,73.10
2017-07-31T19:10:25.439Z,73.90
2017-07-31T19:12:53.742Z,73.60
2017-07-31T19:15:22.052Z,73.90
2017-07-31T19:17:50.362Z,75.80
2017-07-31T19:20:18.666Z,73.80
2017-07-31T19:22:47.958Z,56.50
2017-07-31T19:25:16.274Z,57.00
2017-07-31T19:27:45.766Z,57.10
2017-07-31T19:30:14.149Z,57.60
2017-07-31T19:32:42.446Z,57.80
2017-07-31T19:35:11.127Z,58.00
2017-07-31T19:37:40.201Z,58.10
2017-07-31T19:40:08.810Z,59.00
2017-07-31T19:42:37.116Z,58.90
2017-07-31T19:45:06.090Z,59.20
2017-07-31T19:47:34.383Z,59.10
2017-07-31T19:50:02.671Z,58.90
2017-07-31T19:52:31.219Z,59.60
2017-07-31T19:54:59.500Z,59.50
2017-07-31T19:57:27.778Z,59.50
2017-07-31T19:59:56.063Z,59.60
2017-07-31T20:02:24.373Z,59.70
2017-07-31T20:04:53.065Z,59.70
2017-07-31T20:07:22.076Z,59.90
2017-07-31T20:09:51.162Z,61.80
2017-07-31T20:12:19.440Z,60.90
2017-07-31T20:14:48.232Z,61.00
2017-07-31T20:17:16.616Z,60.60
2017-07-31T20:19:44.943Z,61.20
2017-07-31T20:22:14.634Z,61.10
2017-07-31T20:24:43.194Z,61.30
2017-07-31T20:27:11.616Z,61.60
2017-07-31T20:29:40.931Z,62.40
2017-07-31T20:32:10.073Z,62.50
2017-07-31T20:34:39.647Z,62.50
2017-07-31T20:37:09.095Z,63.30
2017-07-31T20:39:37.422Z,63.90
2017-07-31T20:42:06.595Z,64.50
2017-07-31T20:44:35.364Z,64.40
2017-07-31T20:47:03.682Z,63.80
2017-07-31T20:49:32.316Z,64.00
2017-07-31T20:52:00.641Z,63.60
2017-07-31T20:54:29.335Z,64.70
2017-07-31T20:56:58.421Z,64.20
2017-07-31T20:59:27.512Z,64.30
2017-07-31T21:01:55.892Z,65.00
2017-07-31T21:04:24.189Z,65.60
2017-07-31T21:06:52.772Z,65.80
2017-07-31T21:09:21.664Z,66.10
2017-07-31T21:11:49.953Z,66.70
2017-07-31T21:14:18.763Z,66.90
2017-07-31T21:16:47.028Z,67.40
2017-07-31T21:19:15.609Z,67.60
2017-07-31T21:21:44.011Z,67.90
2017-07-31T21:24:12.366Z,68.20
2017-07-31T21:26:40.680Z,68.70
2017-07-31T21:29:09.976Z,69.50
2017-07-31T21:31:38.549Z,69.90
2017-07-31T21:34:06.956Z,70.10
2017-07-31T21:36:36.353Z,70.20
2017-07-31T21:39:04.748Z,70.30
2017-07-31T21:41:33.621Z,70.50
2017-07-31T21:44:02.178Z,70.80
2017-07-31T21:46:30.460Z,71.10
2017-07-31T21:48:58.772Z,71.00
2017-07-31T21:51:27.071Z,71.20
2017-07-31T21:53:55.428Z,71.50
2017-07-31T21:56:24.718Z,71.80
2017-07-31T21:58:53.026Z,72.10
2017-07-31T22:01:21.528Z,72.50
2017-07-31T22:03:49.828Z,72.70
2017-07-31T22:06:19.025Z,73.00
2017-07-31T22:08:48.205Z,73.00
2017-07-31T22:11:16.511Z,73.00
2017-07-31T22:13:45.563Z,73.60
2017-07-31T22:16:13.981Z,73.50
2017-07-31T22:18:42.242Z,74.70
2017-07-31T22:21:16.176Z,74.20
2017-07-31T22:23:44.739Z,74.60
2017-07-31T22:26:13.839Z,75.00
2017-07-31T22:28:42.231Z,75.10
2017-07-31T22:31:11.356Z,75.30
2017-07-31T22:33:39.660Z,75.50
2017-07-31T22:36:07.964Z,75.90
2017-07-31T22:38:36.574Z,76.00
2017-07-31T22:41:05.172Z,76.50
2017-07-31T22:43:34.368Z,76.80
2017-07-31T22:46:02.676Z,76.90
2017-07-31T22:48:32.362Z,77.30
2017-07-31T22:51:01.148Z,77.30
2017-07-31T22:53:29.746Z,77.40
2017-07-31T22:55:58.736Z,77.50
2017-07-31T22:58:27.022Z,78.10
2017-07-31T23:03:36.676Z,78.10
2017-07-31T23:06:05.975Z,78.00
2017-07-31T23:08:34.447Z,78.30
2017-07-31T23:11:02.785Z,78.60
2017-07-31T23:13:31.147Z,78.70
2017-07-31T23:15:59.417Z,79.00
2017-07-31T23:18:28.044Z,79.30
2017-07-31T23:20:56.796Z,79.30
2017-07-31T23:23:25.296Z,79.90
2017-07-31T23:25:54.230Z,80.10
2017-07-31T23:28:23.271Z,80.80
2017-07-31T23:30:51.868Z,80.60
2017-07-31T23:33:20.451Z,81.20
2017-07-31T23:35:49.256Z,81.30
2017-07-31T23:38:17.566Z,81.70
2017-07-31T23:40:45.861Z,81.60
2017-07-31T23:43:15.884Z,81.90
2017-07-31T23:45:44.192Z,81.80
2017-07-31T23:48:13.328Z,82.40
2017-07-31T23:50:41.729Z,82.40
2017-07-31T23:53:10.098Z,82.10
2017-07-31T23:55:38.654Z,82.10
2017-07-31T23:58:06.971Z,82.30
